createdAt,value
2018-04-29T00:00:46.577Z,971.61
2018-04-29T00:01:46.760Z,971.62
2018-04-29T00:02:46.998Z,971.64
2018-04-29T00:03:47.241Z,971.60
2018-04-29T00:04:47.484Z,971.57
2018-04-29T00:05:47.715Z,971.55
2018-04-29T00:06:47.953Z,971.54
2018-04-29T00:07:48.189Z,971.56
2018-04-29T00:08:48.434Z,971.54
2018-04-29T00:09:48.683Z,971.58
2018-04-29T00:10:48.919Z,971.52
2018-04-29T00:11:49.161Z,971.45
2018-04-29T00:12:49.404Z,971.40
2018-04-29T00:13:49.641Z,971.35
2018-04-29T00:14:49.881Z,971.35
2018-04-29T00:15:50.138Z,971.30
2018-04-29T00:16:50.364Z,971.30
2018-04-29T00:17:50.605Z,971.33
2018-04-29T00:18:50.845Z,971.28
2018-04-29T00:19:51.091Z,971.31
2018-04-29T00:20:51.333Z,971.33
2018-04-29T00:21:51.574Z,971.34
2018-04-29T00:22:51.812Z,971.34
2018-04-29T00:23:52.067Z,971.34
2018-04-29T00:24:52.291Z,971.31
2018-04-29T00:25:52.528Z,971.35
2018-04-29T00:26:52.763Z,971.36
2018-04-29T00:27:52.995Z,971.37
2018-04-29T00:28:53.248Z,971.33
2018-04-29T00:29:53.488Z,971.35
2018-04-29T00:30:53.734Z,971.40
2018-04-29T00:31:53.970Z,971.42
2018-04-29T00:32:54.316Z,971.38
2018-04-29T00:33:54.459Z,971.42
2018-04-29T00:34:54.701Z,971.40
2018-04-29T00:35:54.938Z,971.42
2018-04-29T00:36:55.180Z,971.47
2018-04-29T00:37:55.422Z,971.45
2018-04-29T00:38:55.665Z,971.47
2018-04-29T00:39:55.901Z,971.50
2018-04-29T00:40:56.145Z,971.53
2018-04-29T00:41:56.400Z,971.53
2018-04-29T00:42:56.624Z,971.55
2018-04-29T00:43:56.865Z,971.55
2018-04-29T00:44:57.107Z,971.57
2018-04-29T00:45:57.349Z,971.58
2018-04-29T00:46:57.593Z,971.58
2018-04-29T00:47:57.832Z,971.61
2018-04-29T00:48:58.079Z,971.58
2018-04-29T00:49:58.314Z,971.58
2018-04-29T00:50:58.554Z,971.60
2018-04-29T00:51:58.813Z,971.56
2018-04-29T00:52:59.030Z,971.60
2018-04-29T00:53:59.270Z,971.58
2018-04-29T00:54:59.509Z,971.56
2018-04-29T00:55:59.757Z,971.55
2018-04-29T00:56:59.988Z,971.57
2018-04-29T00:58:00.229Z,971.59
2018-04-29T00:59:00.503Z,971.59
2018-04-29T01:00:00.711Z,971.61
2018-04-29T01:01:00.954Z,971.61
2018-04-29T01:02:01.192Z,971.60
2018-04-29T01:03:01.438Z,971.61
2018-04-29T01:04:01.677Z,971.60
2018-04-29T01:05:01.909Z,971.59
2018-04-29T01:06:02.234Z,971.60
2018-04-29T01:07:02.391Z,971.59
2018-04-29T01:08:02.626Z,971.55
2018-04-29T01:09:02.868Z,971.52
2018-04-29T01:10:03.104Z,971.53
2018-04-29T01:11:03.348Z,971.47
2018-04-29T01:12:03.574Z,971.45
2018-04-29T01:13:03.814Z,971.41
2018-04-29T01:14:04.055Z,971.44
2018-04-29T01:15:04.292Z,971.46
2018-04-29T01:16:04.534Z,971.43
2018-04-29T01:17:04.775Z,971.47
2018-04-29T01:18:05.015Z,971.47
2018-04-29T01:19:05.253Z,971.48
2018-04-29T01:20:05.494Z,971.49
2018-04-29T01:21:05.734Z,971.47
2018-04-29T01:22:05.979Z,971.52
2018-04-29T01:23:06.220Z,971.54
2018-04-29T01:24:06.450Z,971.53
2018-04-29T01:25:06.688Z,971.53
2018-04-29T01:26:06.933Z,971.54
2018-04-29T01:27:07.187Z,971.51
2018-04-29T01:28:07.410Z,971.57
2018-04-29T01:29:07.652Z,971.58
2018-04-29T01:30:07.897Z,971.60
2018-04-29T01:31:08.145Z,971.62
2018-04-29T01:32:08.382Z,971.54
2018-04-29T01:33:08.618Z,971.56
2018-04-29T01:34:08.850Z,971.58
2018-04-29T01:35:09.096Z,971.60
2018-04-29T01:36:09.346Z,971.61
2018-04-29T01:37:09.578Z,971.59
2018-04-29T01:38:09.816Z,971.60
2018-04-29T01:39:10.061Z,971.55
2018-04-29T01:40:10.298Z,971.49
2018-04-29T01:41:10.533Z,971.58
2018-04-29T01:42:10.771Z,971.54
2018-04-29T01:43:11.012Z,971.54
2018-04-29T01:44:11.252Z,971.53
2018-04-29T01:45:11.500Z,971.50
2018-04-29T01:46:11.734Z,971.51
2018-04-29T01:47:11.976Z,971.48
2018-04-29T01:48:12.217Z,971.51
2018-04-29T01:49:12.474Z,971.50
2018-04-29T01:50:12.694Z,971.47
2018-04-29T01:51:12.935Z,971.48
2018-04-29T01:52:13.176Z,971.46
2018-04-29T01:53:13.437Z,971.45
2018-04-29T01:54:13.654Z,971.41
2018-04-29T01:55:13.907Z,971.42
2018-04-29T01:56:14.151Z,971.39
2018-04-29T01:57:14.398Z,971.37
2018-04-29T01:58:14.623Z,971.40
2018-04-29T01:59:14.867Z,971.39
2018-04-29T02:00:15.090Z,971.37
2018-04-29T02:01:15.334Z,971.39
2018-04-29T02:02:15.573Z,971.38
2018-04-29T02:03:15.813Z,971.36
2018-04-29T02:04:16.052Z,971.34
2018-04-29T02:05:16.296Z,971.38
2018-04-29T02:06:16.533Z,971.34
2018-04-29T02:07:16.779Z,971.38
2018-04-29T02:08:17.023Z,971.36
2018-04-29T02:09:17.257Z,971.37
2018-04-29T02:10:17.501Z,971.35
2018-04-29T02:11:17.732Z,971.36
2018-04-29T02:12:17.969Z,971.40
2018-04-29T02:13:18.209Z,971.45
2018-04-29T02:14:18.448Z,971.42
2018-04-29T02:15:18.689Z,971.38
2018-04-29T02:16:18.931Z,971.31
2018-04-29T02:17:19.159Z,971.31
2018-04-29T02:18:19.404Z,971.29
2018-04-29T02:19:19.645Z,971.30
2018-04-29T02:20:19.889Z,971.31
2018-04-29T02:21:20.131Z,971.28
2018-04-29T02:22:20.365Z,971.32
2018-04-29T02:23:20.600Z,971.32
2018-04-29T02:24:20.857Z,971.35
2018-04-29T02:25:21.081Z,971.34
2018-04-29T02:26:21.315Z,971.39
2018-04-29T02:27:21.554Z,971.39
2018-04-29T02:28:21.792Z,971.41
2018-04-29T02:29:22.033Z,971.43
2018-04-29T02:30:22.270Z,971.40
2018-04-29T02:31:22.594Z,971.40
2018-04-29T02:32:22.751Z,971.40
2018-04-29T02:33:23.005Z,971.43
2018-04-29T02:34:23.222Z,971.38
2018-04-29T02:35:23.463Z,971.36
2018-04-29T02:36:23.701Z,971.35
2018-04-29T02:37:23.940Z,971.34
2018-04-29T02:38:24.181Z,971.32
2018-04-29T02:39:24.423Z,971.34
2018-04-29T02:40:24.656Z,971.34
2018-04-29T02:41:24.893Z,971.33
2018-04-29T02:42:25.131Z,971.33
2018-04-29T02:43:25.370Z,971.30
2018-04-29T02:44:25.657Z,971.29
2018-04-29T02:45:25.855Z,971.32
2018-04-29T02:46:26.081Z,971.33
2018-04-29T02:47:26.324Z,971.33
2018-04-29T02:48:26.569Z,971.31
2018-04-29T02:49:26.810Z,971.29
2018-04-29T02:50:27.062Z,971.28
2018-04-29T02:51:27.307Z,971.26
2018-04-29T02:52:27.543Z,971.25
2018-04-29T02:53:27.779Z,971.24
2018-04-29T02:54:28.015Z,971.19
2018-04-29T02:55:28.266Z,971.20
2018-04-29T02:56:28.494Z,971.16
2018-04-29T02:57:28.734Z,971.15
2018-04-29T02:58:28.975Z,971.16
2018-04-29T02:59:29.191Z,971.15
2018-04-29T03:00:29.446Z,971.16
2018-04-29T03:01:29.708Z,971.09
2018-04-29T03:02:29.928Z,971.05
2018-04-29T03:03:30.166Z,971.08
2018-04-29T03:04:30.410Z,971.03
2018-04-29T03:05:30.646Z,971.00
2018-04-29T03:06:30.890Z,971.03
2018-04-29T03:07:31.129Z,970.98
2018-04-29T03:08:31.371Z,971.05
2018-04-29T03:09:31.604Z,971.06
2018-04-29T03:10:31.851Z,971.01
2018-04-29T03:11:32.088Z,971.00
2018-04-29T03:12:32.327Z,970.99
2018-04-29T03:13:32.569Z,970.93
2018-04-29T03:14:32.810Z,970.94
2018-04-29T03:15:33.061Z,970.93
2018-04-29T03:16:33.292Z,970.89
2018-04-29T03:17:33.534Z,970.85
2018-04-29T03:18:33.766Z,970.81
2018-04-29T03:19:34.014Z,970.81
2018-04-29T03:20:34.249Z,970.77
2018-04-29T03:21:34.501Z,970.74
2018-04-29T03:22:34.726Z,970.73
2018-04-29T03:23:34.966Z,970.73
2018-04-29T03:24:35.203Z,970.68
2018-04-29T03:25:35.433Z,970.65
2018-04-29T03:26:35.667Z,970.63
2018-04-29T03:27:35.906Z,970.64
2018-04-29T03:28:36.171Z,970.56
2018-04-29T03:29:36.385Z,970.54
2018-04-29T03:30:36.623Z,970.53
2018-04-29T03:31:36.866Z,970.53
2018-04-29T03:32:37.107Z,970.53
2018-04-29T03:33:37.348Z,970.54
2018-04-29T03:34:37.581Z,970.50
2018-04-29T03:35:37.811Z,970.52
2018-04-29T03:36:38.050Z,970.52
2018-04-29T03:37:38.290Z,970.52
2018-04-29T03:38:38.530Z,970.46
2018-04-29T03:39:38.764Z,970.48
2018-04-29T03:40:38.999Z,970.45
2018-04-29T03:41:39.242Z,970.40
2018-04-29T03:42:39.477Z,970.39
2018-04-29T03:43:39.723Z,970.38
2018-04-29T03:44:39.962Z,970.34
2018-04-29T03:45:40.202Z,970.31
2018-04-29T03:46:40.432Z,970.29
2018-04-29T03:47:40.668Z,970.26
2018-04-29T03:48:40.910Z,970.31
2018-04-29T03:49:41.149Z,970.34
2018-04-29T03:50:41.387Z,970.28
2018-04-29T03:51:41.626Z,970.30
2018-04-29T03:52:41.868Z,970.29
2018-04-29T03:53:42.109Z,970.29
2018-04-29T03:54:42.353Z,970.27
2018-04-29T03:55:42.576Z,970.29
2018-04-29T03:56:42.817Z,970.29
2018-04-29T03:57:43.066Z,970.23
2018-04-29T03:58:43.285Z,970.24
2018-04-29T03:59:43.523Z,970.21
2018-04-29T04:00:43.760Z,970.23
2018-04-29T04:01:51.285Z,970.25
2018-04-29T04:02:44.321Z,970.27
2018-04-29T04:03:44.480Z,970.30
2018-04-29T04:04:44.715Z,970.26
2018-04-29T04:05:44.956Z,970.32
2018-04-29T04:06:45.195Z,970.27
2018-04-29T04:07:45.432Z,970.33
2018-04-29T04:08:45.666Z,970.30
2018-04-29T04:09:45.944Z,970.35
2018-04-29T04:10:46.149Z,970.36
2018-04-29T04:11:46.389Z,970.32
2018-04-29T04:12:46.631Z,970.33
2018-04-29T04:13:46.869Z,970.31
2018-04-29T04:14:47.107Z,970.32
2018-04-29T04:15:47.346Z,970.36
2018-04-29T04:16:47.585Z,970.35
2018-04-29T04:17:47.831Z,970.33
2018-04-29T04:18:48.068Z,970.32
2018-04-29T04:19:48.303Z,970.34
2018-04-29T04:20:48.546Z,970.37
2018-04-29T04:21:48.783Z,970.35
2018-04-29T04:22:49.025Z,970.33
2018-04-29T04:23:49.319Z,970.34
2018-04-29T04:24:49.502Z,970.31
2018-04-29T04:25:49.743Z,970.33
2018-04-29T04:26:49.982Z,970.33
2018-04-29T04:27:50.222Z,970.31
2018-04-29T04:28:50.460Z,970.34
2018-04-29T04:29:50.699Z,970.30
2018-04-29T04:30:50.939Z,970.31
2018-04-29T04:31:51.181Z,970.25
2018-04-29T04:32:51.429Z,970.28
2018-04-29T04:33:51.654Z,970.26
2018-04-29T04:34:51.895Z,970.28
2018-04-29T04:35:52.135Z,970.25
2018-04-29T04:36:52.372Z,970.23
2018-04-29T04:37:52.613Z,970.19
2018-04-29T04:38:52.852Z,970.21
2018-04-29T04:39:53.092Z,970.23
2018-04-29T04:40:53.333Z,970.25
2018-04-29T04:41:53.562Z,970.20
2018-04-29T04:42:53.805Z,970.27
2018-04-29T04:43:54.043Z,970.26
2018-04-29T04:44:54.280Z,970.20
2018-04-29T04:45:54.518Z,970.21
2018-04-29T04:46:54.758Z,970.21
2018-04-29T04:47:54.992Z,970.21
2018-04-29T04:48:55.229Z,970.17
2018-04-29T04:49:55.477Z,970.23
2018-04-29T04:50:55.715Z,970.19
2018-04-29T04:51:55.951Z,970.19
2018-04-29T04:52:56.192Z,970.21
2018-04-29T04:53:56.429Z,970.18
2018-04-29T04:54:56.746Z,970.17
2018-04-29T04:55:56.903Z,970.20
2018-04-29T04:56:57.144Z,970.20
2018-04-29T04:57:57.383Z,970.20
2018-04-29T04:58:57.619Z,970.25
2018-04-29T04:59:57.857Z,970.24
2018-04-29T05:00:58.094Z,970.24
2018-04-29T05:01:58.334Z,970.28
2018-04-29T05:02:58.576Z,970.28
2018-04-29T05:03:58.810Z,970.29
2018-04-29T05:04:59.057Z,970.26
2018-04-29T05:05:59.296Z,970.24
2018-04-29T05:06:59.540Z,970.23
2018-04-29T05:07:59.776Z,970.23
2018-04-29T05:09:00.016Z,970.26
2018-04-29T05:10:00.259Z,970.29
2018-04-29T05:11:00.496Z,970.32
2018-04-29T05:12:00.735Z,970.30
2018-04-29T05:13:00.973Z,970.31
2018-04-29T05:14:01.212Z,970.30
2018-04-29T05:15:01.450Z,970.31
2018-04-29T05:16:01.689Z,970.35
2018-04-29T05:17:01.928Z,970.35
2018-04-29T05:18:02.169Z,970.33
2018-04-29T05:19:02.405Z,970.35
2018-04-29T05:20:02.643Z,970.35
2018-04-29T05:21:02.881Z,970.36
2018-04-29T05:22:03.122Z,970.37
2018-04-29T05:23:03.356Z,970.36
2018-04-29T05:24:03.598Z,970.36
2018-04-29T05:25:03.837Z,970.34
2018-04-29T05:26:04.077Z,970.34
2018-04-29T05:27:04.310Z,970.33
2018-04-29T05:28:04.549Z,970.35
2018-04-29T05:29:04.786Z,970.34
2018-04-29T05:30:05.026Z,970.36
2018-04-29T05:31:05.265Z,970.38
2018-04-29T05:32:05.484Z,970.38
2018-04-29T05:33:05.730Z,970.40
2018-04-29T05:34:05.972Z,970.36
2018-04-29T05:35:06.215Z,970.34
2018-04-29T05:36:06.451Z,970.33
2018-04-29T05:37:06.689Z,970.29
2018-04-29T05:38:06.921Z,970.32
2018-04-29T05:39:07.162Z,970.30
2018-04-29T05:40:07.396Z,970.30
2018-04-29T05:41:07.672Z,970.29
2018-04-29T05:42:07.872Z,970.28
2018-04-29T05:43:08.119Z,970.22
2018-04-29T05:44:08.356Z,970.20
2018-04-29T05:45:08.594Z,970.19
2018-04-29T05:46:08.834Z,970.20
2018-04-29T05:47:09.074Z,970.17
2018-04-29T05:48:09.318Z,970.17
2018-04-29T05:49:09.555Z,970.16
2018-04-29T05:50:09.797Z,970.17
2018-04-29T05:51:10.039Z,970.22
2018-04-29T05:52:10.278Z,970.22
2018-04-29T05:53:10.522Z,970.21
2018-04-29T05:54:10.763Z,970.20
2018-04-29T05:55:11.007Z,970.16
2018-04-29T05:56:11.253Z,970.19
2018-04-29T05:57:11.479Z,970.18
2018-04-29T05:58:11.724Z,970.23
2018-04-29T05:59:11.964Z,970.21
2018-04-29T06:00:12.203Z,970.22
2018-04-29T06:01:12.448Z,970.17
2018-04-29T06:02:12.690Z,970.21
2018-04-29T06:03:12.917Z,970.15
2018-04-29T06:04:13.157Z,970.16
2018-04-29T06:05:13.396Z,970.17
2018-04-29T06:06:13.633Z,970.20
2018-04-29T06:07:13.881Z,970.18
2018-04-29T06:08:14.156Z,970.17
2018-04-29T06:09:14.363Z,970.17
2018-04-29T06:10:14.605Z,970.18
2018-04-29T06:11:14.850Z,970.16
2018-04-29T06:12:15.087Z,970.16
2018-04-29T06:13:15.337Z,970.18
2018-04-29T06:14:15.573Z,970.16
2018-04-29T06:15:15.818Z,970.14
2018-04-29T06:16:16.060Z,970.14
2018-04-29T06:17:16.302Z,970.12
2018-04-29T06:18:16.544Z,970.12
2018-04-29T06:19:16.786Z,970.07
2018-04-29T06:20:17.034Z,970.05
2018-04-29T06:21:17.258Z,970.09
2018-04-29T06:22:17.506Z,970.06
2018-04-29T06:23:17.748Z,970.04
2018-04-29T06:24:17.991Z,970.06
2018-04-29T06:25:18.233Z,970.00
2018-04-29T06:26:18.499Z,970.03
2018-04-29T06:27:18.719Z,970.02
2018-04-29T06:28:18.963Z,970.04
2018-04-29T06:29:19.204Z,970.07
2018-04-29T06:30:19.452Z,970.03
2018-04-29T06:31:19.689Z,970.05
2018-04-29T06:32:19.934Z,970.03
2018-04-29T06:33:20.194Z,970.04
2018-04-29T06:34:20.407Z,970.04
2018-04-29T06:35:20.647Z,970.02
2018-04-29T06:36:20.881Z,970.00
2018-04-29T06:37:21.125Z,970.02
2018-04-29T06:38:21.369Z,969.96
2018-04-29T06:39:21.613Z,970.03
2018-04-29T06:40:21.853Z,969.99
2018-04-29T06:41:22.099Z,969.95
2018-04-29T06:42:22.338Z,969.91
2018-04-29T06:43:22.583Z,969.93
2018-04-29T06:44:22.829Z,969.93
2018-04-29T06:45:23.064Z,969.93
2018-04-29T06:46:23.312Z,969.97
2018-04-29T06:47:23.556Z,969.99
2018-04-29T06:48:23.797Z,970.01
2018-04-29T06:49:24.043Z,970.07
2018-04-29T06:50:24.296Z,970.07
2018-04-29T06:51:24.531Z,970.08
2018-04-29T06:52:24.775Z,970.09
2018-04-29T06:53:25.053Z,970.11
2018-04-29T06:54:25.271Z,970.15
2018-04-29T06:55:25.518Z,970.11
2018-04-29T06:56:25.762Z,970.10
2018-04-29T06:57:26.030Z,970.16
2018-04-29T06:58:26.251Z,970.25
2018-04-29T06:59:26.492Z,970.31
2018-04-29T07:00:26.733Z,970.38
2018-04-29T07:01:26.977Z,970.40
2018-04-29T07:02:27.219Z,970.42
2018-04-29T07:03:27.451Z,970.44
2018-04-29T07:04:27.694Z,970.44
2018-04-29T07:05:27.936Z,970.47
2018-04-29T07:06:28.185Z,970.41
2018-04-29T07:07:28.450Z,970.44
2018-04-29T07:08:28.688Z,970.44
2018-04-29T07:09:28.930Z,970.39
2018-04-29T07:10:29.178Z,970.43
2018-04-29T07:11:29.415Z,970.40
2018-04-29T07:12:29.659Z,970.51
2018-04-29T07:13:29.921Z,970.51
2018-04-29T07:14:30.132Z,970.52
2018-04-29T07:15:30.389Z,970.54
2018-04-29T07:16:30.637Z,970.52
2018-04-29T07:17:30.877Z,970.51
2018-04-29T07:18:31.099Z,970.52
2018-04-29T07:19:31.363Z,970.54
2018-04-29T07:20:31.578Z,970.54
2018-04-29T07:21:31.824Z,970.52
2018-04-29T07:22:32.064Z,970.61
2018-04-29T07:23:32.305Z,970.64
2018-04-29T07:24:32.546Z,970.68
2018-04-29T07:25:32.787Z,970.72
2018-04-29T07:26:33.056Z,970.72
2018-04-29T07:27:33.324Z,970.79
2018-04-29T07:28:33.534Z,970.77
2018-04-29T07:29:33.770Z,970.75
2018-04-29T07:30:34.036Z,970.73
2018-04-29T07:31:34.263Z,970.76
2018-04-29T07:32:34.505Z,970.82
2018-04-29T07:33:34.748Z,970.86
2018-04-29T07:34:34.995Z,970.79
2018-04-29T07:35:35.227Z,970.84
2018-04-29T07:36:35.506Z,970.90
2018-04-29T07:37:35.729Z,970.93
2018-04-29T07:38:35.980Z,970.95
2018-04-29T07:39:36.214Z,970.96
2018-04-29T07:40:36.470Z,970.85
2018-04-29T07:41:36.716Z,970.88
2018-04-29T07:42:36.994Z,970.88
2018-04-29T07:43:37.234Z,970.85
2018-04-29T07:44:37.473Z,970.88
2018-04-29T07:45:37.720Z,970.88
2018-04-29T07:46:38.011Z,970.86
2018-04-29T07:47:38.226Z,970.86
2018-04-29T07:48:38.475Z,970.84
2018-04-29T07:49:38.726Z,970.89
2018-04-29T07:50:38.963Z,970.91
2018-04-29T07:53:12.305Z,970.94
2018-04-29T07:54:12.540Z,970.86
2018-04-29T07:55:12.783Z,970.86
2018-04-29T07:56:13.037Z,970.82
2018-04-29T07:57:13.289Z,970.76
2018-04-29T07:58:13.536Z,970.78
2018-04-29T07:59:13.786Z,970.82
2018-04-29T08:00:14.046Z,970.85
2018-04-29T08:01:14.294Z,970.83
2018-04-29T08:02:14.531Z,970.83
2018-04-29T08:03:14.782Z,970.81
2018-04-29T08:04:15.032Z,970.80
2018-04-29T08:05:15.284Z,970.75
2018-04-29T08:06:15.535Z,970.75
2018-04-29T08:07:15.786Z,970.80
2018-04-29T08:08:16.037Z,970.76
2018-04-29T08:09:16.286Z,970.76
2018-04-29T08:10:16.541Z,970.82
2018-04-29T08:11:16.798Z,970.83
2018-04-29T08:12:17.047Z,970.87
2018-04-29T08:13:17.299Z,970.85
2018-04-29T08:14:17.551Z,970.86
2018-04-29T08:15:17.804Z,970.89
2018-04-29T08:16:18.056Z,970.91
2018-04-29T08:17:18.310Z,970.90
2018-04-29T08:18:18.559Z,970.85
2018-04-29T08:19:18.812Z,970.81
2018-04-29T08:20:19.065Z,970.81
2018-04-29T08:21:19.317Z,970.78
2018-04-29T08:22:19.570Z,970.84
2018-04-29T08:23:19.824Z,970.80
2018-04-29T08:24:20.075Z,970.91
2018-04-29T08:25:20.327Z,970.88
2018-04-29T08:26:20.578Z,970.86
2018-04-29T08:27:20.828Z,970.77
2018-04-29T08:28:21.085Z,970.71
2018-04-29T08:29:21.335Z,970.68
2018-04-29T08:30:21.585Z,970.59
2018-04-29T08:31:21.838Z,970.56
2018-04-29T08:32:22.091Z,970.61
2018-04-29T08:33:22.328Z,970.54
2018-04-29T08:34:22.580Z,970.53
2018-04-29T08:35:22.835Z,970.46
2018-04-29T08:36:23.070Z,970.47
2018-04-29T08:37:23.332Z,970.43
2018-04-29T08:38:23.583Z,970.38
2018-04-29T08:39:23.833Z,970.36
2018-04-29T08:40:24.082Z,970.31
2018-04-29T08:41:24.330Z,970.30
2018-04-29T08:42:24.579Z,970.29
2018-04-29T08:43:24.831Z,970.24
2018-04-29T08:44:25.077Z,970.21
2018-04-29T08:45:25.316Z,970.19
2018-04-29T08:46:25.572Z,970.18
2018-04-29T08:47:25.813Z,970.14
2018-04-29T08:48:26.061Z,970.11
2018-04-29T08:49:26.338Z,970.06
2018-04-29T08:50:26.552Z,970.04
2018-04-29T08:51:26.799Z,970.03
2018-04-29T08:52:27.064Z,969.97
2018-04-29T08:53:27.356Z,969.95
2018-04-29T08:54:27.542Z,969.94
2018-04-29T08:55:27.792Z,969.92
2018-04-29T08:56:28.036Z,969.92
2018-04-29T08:57:28.291Z,970.03
2018-04-29T08:58:28.530Z,969.93
2018-04-29T08:59:28.778Z,969.98
2018-04-29T09:00:29.020Z,969.96
2018-04-29T09:01:29.264Z,970.15
2018-04-29T09:02:29.508Z,970.01
2018-04-29T09:03:29.769Z,970.32
2018-04-29T09:04:30.002Z,970.04
2018-04-29T09:05:30.247Z,969.97
2018-04-29T09:06:30.495Z,970.09
2018-04-29T09:07:30.743Z,970.13
2018-04-29T09:08:30.994Z,970.13
2018-04-29T09:09:31.241Z,970.19
2018-04-29T09:10:31.489Z,970.18
2018-04-29T09:11:31.737Z,970.08
2018-04-29T09:12:31.986Z,970.01
2018-04-29T09:13:32.233Z,970.13
2018-04-29T09:14:32.484Z,970.27
2018-04-29T09:15:32.731Z,970.42
2018-04-29T09:16:32.986Z,970.21
2018-04-29T09:17:33.246Z,970.64
2018-04-29T09:18:33.477Z,970.23
2018-04-29T09:19:33.727Z,970.17
2018-04-29T09:20:33.976Z,970.62
2018-04-29T09:21:34.222Z,970.52
2018-04-29T09:22:34.473Z,970.41
2018-04-29T09:23:34.723Z,970.94
2018-04-29T09:24:34.973Z,971.06
2018-04-29T09:25:35.225Z,970.28
2018-04-29T09:26:35.477Z,971.46
2018-04-29T09:27:35.728Z,971.46
2018-04-29T09:28:35.979Z,971.52
2018-04-29T09:29:36.231Z,971.60
2018-04-29T09:30:36.481Z,970.90
2018-04-29T09:31:36.734Z,970.50
2018-04-29T09:32:36.985Z,970.49
2018-04-29T09:33:37.236Z,971.35
2018-04-29T09:34:37.489Z,971.31
2018-04-29T09:35:37.743Z,971.19
2018-04-29T09:36:37.997Z,971.16
2018-04-29T09:37:38.247Z,971.19
2018-04-29T09:38:38.498Z,971.12
2018-04-29T09:39:38.752Z,971.12
2018-04-29T09:40:39.005Z,971.19
2018-04-29T09:41:39.262Z,971.21
2018-04-29T09:42:39.514Z,971.48
2018-04-29T09:43:39.802Z,971.86
2018-04-29T09:44:40.019Z,972.13
2018-04-29T09:45:40.269Z,972.21
2018-04-29T09:46:40.530Z,972.46
2018-04-29T09:47:40.783Z,972.59
2018-04-29T09:48:41.053Z,972.67
2018-04-29T09:49:41.296Z,972.62
2018-04-29T09:50:41.551Z,972.57
2018-04-29T09:51:41.820Z,972.49
2018-04-29T09:52:42.060Z,972.33
2018-04-29T09:53:42.319Z,972.48
2018-04-29T09:54:42.573Z,972.41
2018-04-29T09:55:42.837Z,972.36
2018-04-29T09:56:43.087Z,972.31
2018-04-29T09:57:43.346Z,972.28
2018-04-29T09:58:43.677Z,972.33
2018-04-29T09:59:43.858Z,972.34
2018-04-29T10:00:44.114Z,972.27
2018-04-29T10:01:44.373Z,972.13
2018-04-29T10:02:44.631Z,971.39
2018-04-29T10:03:44.889Z,970.98
2018-04-29T10:04:45.145Z,970.92
2018-04-29T10:05:45.403Z,970.93
2018-04-29T10:06:45.658Z,970.98
2018-04-29T10:07:45.915Z,971.11
2018-04-29T10:08:46.176Z,971.00
2018-04-29T10:09:46.431Z,971.07
2018-04-29T10:10:46.689Z,971.14
2018-04-29T10:11:46.946Z,971.26
2018-04-29T10:12:47.203Z,971.24
2018-04-29T10:13:47.463Z,971.58
2018-04-29T10:14:47.718Z,971.57
2018-04-29T10:15:47.973Z,971.59
2018-04-29T10:16:48.230Z,971.54
2018-04-29T10:17:48.489Z,971.55
2018-04-29T10:18:48.766Z,970.77
2018-04-29T10:19:49.001Z,970.76
2018-04-29T10:20:49.255Z,970.98
2018-04-29T10:21:49.512Z,970.93
2018-04-29T10:22:49.769Z,970.89
2018-04-29T10:23:50.028Z,970.71
2018-04-29T10:24:50.281Z,970.73
2018-04-29T10:25:50.539Z,970.88
2018-04-29T10:26:50.795Z,970.79
2018-04-29T10:27:51.052Z,971.65
2018-04-29T10:28:51.307Z,971.53
2018-04-29T10:29:51.564Z,971.39
2018-04-29T10:30:51.819Z,971.30
2018-04-29T10:31:52.079Z,970.53
2018-04-29T10:32:52.394Z,970.56
2018-04-29T10:33:52.588Z,970.53
2018-04-29T10:34:52.844Z,970.47
2018-04-29T10:35:53.101Z,970.49
2018-04-29T10:36:53.356Z,970.53
2018-04-29T10:37:53.613Z,970.52
2018-04-29T10:38:53.864Z,970.53
2018-04-29T10:39:54.116Z,970.57
2018-04-29T10:40:54.370Z,970.64
2018-04-29T10:41:54.626Z,970.86
2018-04-29T10:42:54.881Z,971.06
2018-04-29T10:43:55.142Z,970.64
2018-04-29T10:44:55.392Z,970.83
2018-04-29T10:45:55.647Z,971.02
2018-04-29T10:46:55.904Z,970.96
2018-04-29T10:47:56.159Z,971.05
2018-04-29T10:48:56.415Z,970.81
2018-04-29T10:49:56.668Z,970.74
2018-04-29T10:50:56.924Z,970.85
2018-04-29T10:51:57.180Z,970.96
2018-04-29T10:52:57.436Z,970.74
2018-04-29T10:53:57.693Z,970.73
2018-04-29T10:54:57.949Z,970.26
2018-04-29T10:55:58.214Z,970.91
2018-04-29T10:56:58.466Z,970.27
2018-04-29T10:57:58.723Z,970.70
2018-04-29T10:58:58.984Z,970.34
2018-04-29T10:59:59.239Z,970.58
2018-04-29T11:00:59.495Z,971.23
2018-04-29T11:01:59.752Z,971.25
2018-04-29T11:03:00.011Z,970.72
2018-04-29T11:04:00.270Z,970.53
2018-04-29T11:05:00.527Z,970.47
2018-04-29T11:06:00.784Z,970.72
2018-04-29T11:07:01.043Z,970.70
2018-04-29T11:08:01.300Z,970.13
2018-04-29T11:09:01.560Z,970.20
2018-04-29T11:10:01.818Z,970.31
2018-04-29T11:11:02.077Z,970.30
2018-04-29T11:12:02.340Z,970.08
2018-04-29T11:13:02.592Z,970.50
2018-04-29T11:14:02.854Z,970.16
2018-04-29T11:15:03.113Z,970.07
2018-04-29T11:16:03.372Z,970.01
2018-04-29T11:17:03.631Z,970.77
2018-04-29T11:18:03.892Z,970.25
2018-04-29T11:19:04.148Z,970.60
2018-04-29T11:20:04.411Z,970.48
2018-04-29T11:21:04.666Z,970.48
2018-04-29T11:22:04.989Z,970.46
2018-04-29T11:23:05.188Z,970.41
2018-04-29T11:24:05.452Z,970.45
2018-04-29T11:25:05.707Z,970.50
2018-04-29T11:26:05.967Z,970.52
2018-04-29T11:27:06.238Z,970.53
2018-04-29T11:28:06.483Z,970.59
2018-04-29T11:29:06.744Z,970.63
2018-04-29T11:30:07.004Z,970.62
2018-04-29T11:31:07.265Z,970.53
2018-04-29T11:32:07.528Z,970.40
2018-04-29T11:33:07.789Z,970.27
2018-04-29T11:34:08.042Z,970.17
2018-04-29T11:35:08.322Z,970.10
2018-04-29T11:36:08.584Z,970.04
2018-04-29T11:37:08.839Z,970.08
2018-04-29T11:38:09.101Z,970.07
2018-04-29T11:39:09.361Z,970.11
2018-04-29T11:40:09.620Z,970.15
2018-04-29T11:41:09.879Z,970.21
2018-04-29T11:42:10.138Z,970.10
2018-04-29T11:43:10.396Z,970.03
2018-04-29T11:44:10.655Z,970.00
2018-04-29T11:45:10.912Z,969.97
2018-04-29T11:46:11.173Z,969.93
2018-04-29T11:47:11.428Z,969.99
2018-04-29T11:48:11.687Z,969.93
2018-04-29T11:49:11.945Z,969.87
2018-04-29T11:50:12.205Z,969.91
2018-04-29T11:51:12.467Z,969.87
2018-04-29T11:52:12.721Z,969.83
2018-04-29T11:53:12.979Z,969.72
2018-04-29T11:54:13.238Z,969.77
2018-04-29T11:55:13.496Z,969.72
2018-04-29T11:56:13.753Z,969.68
2018-04-29T11:57:14.012Z,969.73
2018-04-29T11:58:14.270Z,969.78
2018-04-29T11:59:14.527Z,969.73
2018-04-29T12:00:14.787Z,969.69
2018-04-29T12:01:15.045Z,969.70
2018-04-29T12:02:15.303Z,969.66
2018-04-29T12:03:15.559Z,969.68
2018-04-29T12:04:15.815Z,969.60
2018-04-29T12:05:16.073Z,969.57
2018-04-29T12:06:16.332Z,969.48
2018-04-29T12:07:16.592Z,969.49
2018-04-29T12:08:16.849Z,969.43
2018-04-29T12:09:17.110Z,969.36
2018-04-29T12:10:17.365Z,969.39
2018-04-29T12:11:17.628Z,969.31
2018-04-29T12:12:17.885Z,969.31
2018-04-29T12:13:18.144Z,969.30
2018-04-29T12:14:18.404Z,969.27
2018-04-29T12:15:18.660Z,969.22
2018-04-29T12:16:19.054Z,969.18
2018-04-29T12:17:19.178Z,969.14
2018-04-29T12:18:19.434Z,969.15
2018-04-29T12:19:19.701Z,969.12
2018-04-29T12:20:19.953Z,969.03
2018-04-29T12:21:20.209Z,968.98
2018-04-29T12:22:20.468Z,968.92
2018-04-29T12:23:20.729Z,969.02
2018-04-29T12:24:20.986Z,969.02
2018-04-29T12:25:21.241Z,969.00
2018-04-29T12:26:21.505Z,968.94
2018-04-29T12:27:21.754Z,968.97
2018-04-29T12:28:22.017Z,968.96
2018-04-29T12:29:22.264Z,968.91
2018-04-29T12:30:22.517Z,968.91
2018-04-29T12:31:22.777Z,968.81
2018-04-29T12:32:23.035Z,968.78
2018-04-29T12:33:23.290Z,968.75